Time;durP1;ratioP1;P1;durP2;ratioP2;P2;SDS_P1;SDS_P2;PMS_P1;PMS_P2;Temp;Humidity;BMP_temperature;BMP_pressure;BME280_temperature;BME280_humidity;BME280_pressure;Samples;Min_cycle;Max_cycle;Signal;HPM_P1;HPM_P2
2022/01/01 00:00:16;;;;;;;24.27;15.98;;;;;;;11.79;100.00;101391.16;5036943;28;20048;-87
2022/01/01 00:02:52;;;;;;;21.30;14.43;;;;;;;11.77;100.00;101408.66;5018046;28;20080;-85
2022/01/01 00:05:21;;;;;;;23.15;16.13;;;;;;;11.75;100.00;101406.03;5024983;28;20663;-89
2022/01/01 00:07:48;;;;;;;20.10;12.82;;;;;;;11.77;100.00;101404.25;5021719;28;20037;-86
2022/01/01 00:10:16;;;;;;;27.95;15.43;;;;;;;11.74;100.00;101394.66;5031226;28;20057;-87
2022/01/01 00:12:46;;;;;;;22.80;13.55;;;;;;;11.78;100.00;101402.53;5041110;28;20053;-88
2022/01/01 00:15:13;;;;;;;18.17;12.95;;;;;;;11.76;100.00;101402.53;5044036;28;20056;-90
2022/01/01 00:17:40;;;;;;;19.42;12.13;;;;;;;11.70;100.00;101390.28;5014788;28;20126;-85
2022/01/01 00:20:10;;;;;;;15.70;10.93;;;;;;;11.69;100.00;101403.41;5012765;28;20069;-88
2022/01/01 00:22:39;;;;;;;14.23;11.07;;;;;;;11.69;100.00;101403.41;5051173;28;20049;-89
2022/01/01 00:25:10;;;;;;;16.23;11.18;;;;;;;11.68;100.00;101409.53;5023887;28;20053;-87
2022/01/01 00:27:38;;;;;;;21.23;11.70;;;;;;;11.67;100.00;101407.81;5040188;28;20057;-85
2022/01/01 00:30:08;;;;;;;22.38;12.65;;;;;;;11.69;100.00;101403.41;5039710;28;20128;-90
2022/01/01 00:32:39;;;;;;;17.95;11.35;;;;;;;11.70;100.00;101411.28;5047570;28;20053;-86
2022/01/01 00:35:08;;;;;;;15.63;11.10;;;;;;;11.72;100.00;101400.78;5042318;28;20793;-87
2022/01/01 00:37:36;;;;;;;22.58;11.18;;;;;;;11.76;100.00;101407.78;5035381;28;20121;-86
2022/01/01 00:40:04;;;;;;;15.45;9.70;;;;;;;11.78;100.00;101411.25;5035996;28;20044;-87
2022/01/01 00:42:31;;;;;;;20.40;12.60;;;;;;;11.78;100.00;101416.50;5033734;28;20352;-89
2022/01/01 00:44:59;;;;;;;18.65;11.02;;;;;;;11.78;100.00;101419.13;5022802;28;20055;-89
2022/01/01 00:47:25;;;;;;;19.33;11.88;;;;;;;11.84;100.00;101419.13;5031567;28;20542;-88
2022/01/01 00:49:52;;;;;;;21.27;12.02;;;;;;;11.84;100.00;101416.50;5036836;28;20923;-85
2022/01/01 00:52:22;;;;;;;17.73;10.98;;;;;;;11.85;100.00;101422.63;5033545;28;20041;-85
2022/01/01 00:54:49;;;;;;;17.55;12.10;;;;;;;11.87;100.00;101418.25;5041269;28;20131;-85
2022/01/01 00:57:16;;;;;;;17.92;10.82;;;;;;;11.87;100.00;101415.63;5035499;28;20519;-89
2022/01/01 00:59:44;;;;;;;16.90;11.02;;;;;;;11.86;100.00;101424.38;5031113;28;20045;-85
2022/01/01 01:02:11;;;;;;;22.48;11.95;;;;;;;11.86;100.00;101432.25;5040671;28;20069;-88
2022/01/01 01:04:38;;;;;;;19.65;12.60;;;;;;;11.86;100.00;101433.13;5029136;28;20367;-86
2022/01/01 01:07:04;;;;;;;18.67;12.02;;;;;;;11.85;100.00;101444.50;5020064;28;20255;-86
2022/01/01 01:09:31;;;;;;;35.80;24.15;;;;;;;11.86;100.00;101438.38;5050163;28;20049;-85
2022/01/01 01:11:58;;;;;;;34.00;20.33;;;;;;;11.84;100.00;101442.75;5058403;28;20037;-91
2022/01/01 01:14:28;;;;;;;22.40;16.17;;;;;;;11.85;100.00;101438.34;5037393;28;20037;-90
2022/01/01 01:16:56;;;;;;;20.60;13.80;;;;;;;11.85;100.00;101446.22;5041723;28;20068;-89
2022/01/01 01:19:23;;;;;;;21.25;11.77;;;;;;;11.83;100.00;101440.97;5049163;28;20104;-90
2022/01/01 01:21:51;;;;;;;22.45;13.70;;;;;;;11.84;100.00;101441.88;5044861;28;20049;-90
2022/01/01 01:24:19;;;;;;;22.15;12.93;;;;;;;11.85;100.00;101447.13;5039991;28;20041;-84
2022/01/01 01:26:49;;;;;;;19.33;13.38;;;;;;;11.86;100.00;101445.34;5041697;28;20499;-83
2022/01/01 01:29:19;;;;;;;21.83;13.02;;;;;;;11.87;100.00;101442.72;5042669;28;20032;-84
2022/01/01 01:31:48;;;;;;;23.42;13.68;;;;;;;11.86;100.00;101440.09;5037720;28;20072;-89
2022/01/01 01:34:18;;;;;;;19.45;12.77;;;;;;;11.85;100.00;101451.47;5020868;28;20054;-87
2022/01/01 01:36:45;;;;;;;17.55;12.45;;;;;;;11.84;100.00;101455.00;5021001;28;20056;-87
2022/01/01 01:39:12;;;;;;;23.25;13.85;;;;;;;11.82;100.00;101448.88;5026117;28;20040;-85
2022/01/01 01:41:42;;;;;;;20.23;13.27;;;;;;;11.81;100.00;101448.00;5015155;28;20057;-86
2022/01/01 01:44:33;;;;;;;17.80;12.55;;;;;;;11.87;100.00;101444.47;5003900;28;20063;-93
2022/01/01 01:47:02;;;;;;;24.20;14.63;;;;;;;11.87;100.00;101455.84;5038922;28;20049;-84
2022/01/01 01:49:30;;;;;;;21.30;13.35;;;;;;;11.88;100.00;101454.09;5023082;28;20037;-89
2022/01/01 01:51:58;;;;;;;25.55;14.63;;;;;;;11.90;100.00;101453.22;5017969;28;20045;-88
2022/01/01 01:54:25;;;;;;;26.58;14.27;;;;;;;11.93;100.00;101447.09;5000146;28;20075;-85
2022/01/01 01:56:53;;;;;;;19.25;13.65;;;;;;;11.89;100.00;101443.59;5022770;28;20143;-86
2022/01/01 01:59:20;;;;;;;20.73;13.48;;;;;;;11.90;100.00;101453.22;5003778;28;20044;-86
2022/01/01 02:01:46;;;;;;;21.02;14.00;;;;;;;11.89;100.00;101446.22;5007577;28;20045;-89
2022/01/01 02:04:13;;;;;;;22.08;12.52;;;;;;;11.94;100.00;101458.47;5002223;28;20060;-88
2022/01/01 02:06:42;;;;;;;15.43;12.15;;;;;;;11.90;100.00;101453.22;5023467;28;21596;-86
2022/01/01 02:09:19;;;;;;;21.88;13.32;;;;;;;11.94;100.00;101450.59;5029018;28;20033;-89
2022/01/01 02:11:46;;;;;;;20.45;13.00;;;;;;;11.94;100.00;101466.34;5040263;28;20204;-88
2022/01/01 02:14:23;;;;;;;20.30;14.25;;;;;;;11.92;100.00;101463.72;5030928;28;20473;-89
2022/01/01 02:19:54;;;;;;;19.33;11.82;;;;;;;11.96;100.00;101465.50;5019469;28;20053;-91
2022/01/01 02:22:22;;;;;;;21.80;13.50;;;;;;;11.97;100.00;101477.75;5025519;28;20064;-90
2022/01/01 02:24:56;;;;;;;22.95;12.93;;;;;;;11.99;100.00;101477.72;5035699;28;22453;-83
2022/01/01 02:27:27;;;;;;;22.23;13.38;;;;;;;11.97;100.00;101476.84;5010272;28;20045;-91
2022/01/01 02:29:55;;;;;;;20.23;13.32;;;;;;;11.97;100.00;101479.47;5026921;28;20091;-86
2022/01/01 02:32:24;;;;;;;24.85;13.60;;;;;;;11.94;100.00;101484.69;5009238;28;20086;-89
2022/01/01 02:34:51;;;;;;;22.77;13.27;;;;;;;11.94;100.00;101485.56;5039880;28;20051;-89
2022/01/01 02:37:22;;;;;;;21.40;13.25;;;;;;;11.93;100.00;101494.34;5052461;28;20049;-86
2022/01/01 02:39:51;;;;;;;24.38;13.80;;;;;;;11.93;100.00;101496.97;5045566;28;20045;-88
2022/01/01 02:42:22;;;;;;;21.75;12.23;;;;;;;11.92;100.00;101498.69;5056504;28;20045;-84
2022/01/01 02:44:51;;;;;;;21.08;13.40;;;;;;;11.92;100.00;101489.97;5031024;28;20076;-85
2022/01/01 02:47:19;;;;;;;19.73;13.23;;;;;;;11.92;100.00;101497.81;5027895;28;20061;-88
2022/01/01 02:49:46;;;;;;;19.25;12.38;;;;;;;11.89;100.00;101482.97;5038149;28;20140;-87
2022/01/01 02:52:13;;;;;;;19.95;12.90;;;;;;;11.92;100.00;101496.06;5054425;28;20051;-90
2022/01/01 02:54:40;;;;;;;33.35;23.25;;;;;;;11.92;100.00;101490.81;5034562;28;20045;-89
2022/01/01 02:57:07;;;;;;;26.20;15.95;;;;;;;11.96;100.00;101486.47;5054893;28;20049;-84
2022/01/01 02:59:34;;;;;;;19.63;14.38;;;;;;;11.96;99.74;101491.72;5019574;28;20037;-88
2022/01/01 03:02:01;;;;;;;20.98;12.38;;;;;;;12.00;99.70;101497.84;5026116;28;20084;-88
2022/01/01 03:04:28;;;;;;;23.80;14.50;;;;;;;11.99;99.72;101502.22;5020614;28;20048;-86
2022/01/01 03:06:56;;;;;;;25.65;12.85;;;;;;;12.00;99.93;101506.59;5040586;28;20045;-90
2022/01/01 03:09:25;;;;;;;24.75;13.35;;;;;;;11.97;99.75;101509.22;5044578;28;20076;-87
2022/01/01 03:11:54;;;;;;;20.90;12.27;;;;;;;11.94;99.84;101511.78;5017012;28;20354;-92
2022/01/01 03:14:25;;;;;;;25.35;12.77;;;;;;;11.95;99.93;101503.09;5031409;28;20076;-88
2022/01/01 03:16:52;;;;;;;21.83;13.85;;;;;;;11.97;99.56;101503.09;5047181;28;20504;-91
2022/01/01 03:19:20;;;;;;;17.85;10.70;;;;;;;11.99;99.78;101506.59;5032557;28;20043;-90
2022/01/01 03:21:50;;;;;;;25.95;12.38;;;;;;;11.95;99.58;101487.34;5032915;28;20080;-91
2022/01/01 03:24:17;;;;;;;23.83;12.77;;;;;;;12.01;99.38;101504.84;5029017;28;20040;-85
2022/01/01 03:26:44;;;;;;;22.60;13.40;;;;;;;11.97;99.64;101508.34;5022946;28;20659;-88
2022/01/01 03:29:14;;;;;;;29.08;12.82;;;;;;;11.98;99.33;101512.72;5023864;28;20051;-92
2022/01/01 03:31:51;;;;;;;21.98;12.02;;;;;;;11.95;99.46;101507.44;5032727;28;20048;-85
2022/01/01 03:34:25;;;;;;;21.17;12.57;;;;;;;11.96;99.62;101502.22;5015187;28;20060;-84
2022/01/01 03:36:52;;;;;;;24.50;13.27;;;;;;;11.95;99.77;101508.34;5020947;28;20049;-84
2022/01/01 03:39:22;;;;;;;16.33;11.38;;;;;;;11.93;99.77;101502.19;5010507;28;20037;-83
2022/01/01 03:41:49;;;;;;;19.85;12.85;;;;;;;11.93;99.93;101507.44;5007157;28;20056;-87
2022/01/01 03:44:16;;;;;;;22.52;12.43;;;;;;;11.93;99.80;101504.81;5018645;28;20135;-86
2022/01/01 03:46:46;;;;;;;24.08;12.77;;;;;;;11.96;99.22;101507.47;5018621;28;20067;-83
2022/01/01 03:49:14;;;;;;;20.63;12.98;;;;;;;11.96;99.55;101507.47;5003915;28;20045;-89
2022/01/01 03:51:41;;;;;;;24.45;11.27;;;;;;;11.95;99.35;101503.09;5004406;28;20126;-86
2022/01/01 03:54:08;;;;;;;27.17;13.15;;;;;;;11.95;99.26;101505.72;5039401;28;20116;-87
2022/01/01 03:56:41;;;;;;;22.52;12.27;;;;;;;11.94;99.12;101506.56;5003214;28;20045;-86
2022/01/01 03:59:08;;;;;;;17.92;11.27;;;;;;;11.89;99.30;101503.94;5015640;28;20124;-88
2022/01/01 04:01:35;;;;;;;19.08;12.55;;;;;;;11.86;99.79;101501.34;5039501;28;20064;-86
2022/01/01 04:04:04;;;;;;;23.65;13.18;;;;;;;11.86;99.77;101488.22;5032248;28;20043;-88
2022/01/01 04:06:34;;;;;;;24.02;12.90;;;;;;;11.85;100.00;101496.06;5037301;28;20049;-90
2022/01/01 04:09:01;;;;;;;23.40;12.82;;;;;;;11.82;100.00;101502.19;5003675;28;20777;-84
2022/01/01 04:11:28;;;;;;;19.95;11.10;;;;;;;11.83;100.00;101506.56;5023195;28;20049;-87
2022/01/01 04:13:57;;;;;;;23.88;13.48;;;;;;;11.84;100.00;101508.31;5030697;28;20629;-88
2022/01/01 04:16:24;;;;;;;21.50;12.60;;;;;;;11.86;100.00;101509.22;5009380;28;20057;-85
2022/01/01 04:18:57;;;;;;;23.77;12.27;;;;;;;11.87;99.96;101516.19;5027597;28;20037;-83
2022/01/01 04:21:24;;;;;;;20.40;11.80;;;;;;;11.92;99.97;101516.19;5005496;28;20093;-84
2022/01/01 04:23:51;;;;;;;24.00;13.50;;;;;;;11.91;99.78;101511.81;5012957;28;20385;-85
2022/01/01 04:26:21;;;;;;;21.73;11.95;;;;;;;11.95;99.71;101510.06;5001284;28;20050;-86
2022/01/01 04:28:48;;;;;;;28.70;13.10;;;;;;;11.98;99.32;101512.72;5008445;28;20420;-86
2022/01/01 04:31:15;;;;;;;20.58;12.82;;;;;;;11.95;99.66;101520.56;5021340;28;20050;-83
2022/01/01 04:33:46;;;;;;;24.85;12.30;;;;;;;11.92;99.78;101508.31;5041478;28;20060;-83
2022/01/01 04:36:14;;;;;;;19.95;12.30;;;;;;;11.93;99.63;101520.56;5036172;28;20034;-84
2022/01/01 04:38:44;;;;;;;21.00;13.32;;;;;;;11.93;99.51;101520.56;5039483;28;20048;-87
2022/01/01 04:41:15;;;;;;;18.70;12.07;;;;;;;11.91;99.93;101522.31;5042278;28;20045;-87
2022/01/01 04:43:46;;;;;;;22.77;11.85;;;;;;;11.89;99.96;101524.94;5021364;28;20108;-87
2022/01/01 04:46:13;;;;;;;21.35;12.77;;;;;;;11.88;100.00;101532.81;5023206;28;20520;-85
2022/01/01 04:48:43;;;;;;;23.05;12.93;;;;;;;11.87;99.84;101528.44;5038539;28;20052;-89
2022/01/01 04:51:12;;;;;;;21.95;12.77;;;;;;;11.89;99.88;101535.44;5055499;28;20045;-88
2022/01/01 04:53:45;;;;;;;21.15;12.30;;;;;;;11.94;99.54;101535.41;5023800;28;20046;-89
2022/01/01 04:56:19;;;;;;;25.98;13.68;;;;;;;11.90;99.68;101536.28;5042806;28;20059;-83
2022/01/01 04:58:46;;;;;;;19.27;12.05;;;;;;;11.92;99.65;101539.81;5036879;28;20068;-86
2022/01/01 05:01:14;;;;;;;24.55;14.02;;;;;;;11.91;99.43;101540.69;5023504;28;20056;-85
2022/01/01 05:03:44;;;;;;;21.13;12.27;;;;;;;11.92;99.28;101539.81;5044820;28;20045;-86
2022/01/01 05:06:14;;;;;;;21.02;13.10;;;;;;;11.91;99.25;101532.81;5024481;28;20041;-89
2022/01/01 05:08:41;;;;;;;20.17;12.40;;;;;;;11.90;99.21;101524.06;5045699;28;20261;-88
2022/01/01 05:11:09;;;;;;;28.17;12.82;;;;;;;11.85;99.74;101531.06;5038019;28;20076;-86
2022/01/01 05:13:35;;;;;;;21.08;12.23;;;;;;;11.86;99.56;101530.19;5042702;28;20072;-92
2022/01/01 05:16:02;;;;;;;25.17;12.98;;;;;;;11.80;100.00;101527.56;5023493;28;20056;-84
2022/01/01 05:18:36;;;;;;;18.98;11.13;;;;;;;11.75;99.99;101532.78;5025958;28;20045;-90
2022/01/01 05:21:05;;;;;;;21.10;12.38;;;;;;;11.72;100.00;101538.06;5036613;28;20140;-87
2022/01/01 05:23:35;;;;;;;21.75;11.73;;;;;;;11.73;100.00;101531.06;5028613;28;20060;-85
2022/01/01 05:26:03;;;;;;;27.65;13.70;;;;;;;11.71;100.00;101541.53;5026107;28;20049;-82
2022/01/01 05:28:33;;;;;;;24.38;12.27;;;;;;;11.70;100.00;101544.19;5060617;28;20100;-87
2022/01/01 05:31:00;;;;;;;23.20;12.05;;;;;;;11.67;100.00;101541.56;5047043;28;20472;-88
2022/01/01 05:33:27;;;;;;;28.15;11.40;;;;;;;11.67;100.00;101545.03;5045141;28;20076;-88
2022/01/01 05:35:54;;;;;;;25.48;13.32;;;;;;;11.68;100.00;101532.78;5048069;28;20077;-85
2022/01/01 05:38:26;;;;;;;24.25;13.48;;;;;;;11.65;100.00;101538.06;5025840;28;20053;-89
2022/01/01 05:40:54;;;;;;;26.42;12.25;;;;;;;11.64;100.00;101537.19;5029489;28;20123;-89
2022/01/01 05:43:21;;;;;;;26.42;14.15;;;;;;;11.67;100.00;101538.94;5057092;28;20086;-85
2022/01/01 05:45:48;;;;;;;28.15;12.52;;;;;;;11.70;100.00;101545.03;5044646;28;20044;-90
2022/01/01 05:48:16;;;;;;;23.75;12.27;;;;;;;11.71;100.00;101548.56;5056770;28;20045;-85
2022/01/01 05:50:43;;;;;;;25.80;12.40;;;;;;;11.70;100.00;101546.78;5045181;28;20036;-88
2022/01/01 05:53:15;;;;;;;22.83;12.27;;;;;;;11.68;100.00;101557.28;5043246;28;20079;-85
2022/01/01 05:55:42;;;;;;;27.25;12.85;;;;;;;11.59;100.00;101552.03;5028796;28;20050;-89
2022/01/01 05:58:10;;;;;;;28.67;13.65;;;;;;;11.52;100.00;101564.25;5030071;28;20056;-87
2022/01/01 06:00:37;;;;;;;35.63;14.75;;;;;;;11.51;100.00;101570.38;5023293;28;20131;-86
2022/01/01 06:03:05;;;;;;;26.77;13.38;;;;;;;11.52;100.00;101572.09;5031259;28;20044;-83
2022/01/01 06:05:32;;;;;;;28.88;13.65;;;;;;;11.53;100.00;101563.38;5041566;28;20048;-88
2022/01/01 06:08:00;;;;;;;29.35;13.70;;;;;;;11.62;100.00;101562.53;5027438;28;20040;-89
2022/01/01 06:10:29;;;;;;;29.23;14.32;;;;;;;11.71;100.00;101564.28;5039178;28;20021;-90
2022/01/01 06:12:56;;;;;;;25.33;13.13;;;;;;;11.71;100.00;101566.91;5028033;28;20126;-84
2022/01/01 06:15:23;;;;;;;26.38;13.95;;;;;;;11.71;100.00;101580.03;5022946;28;20466;-83
2022/01/01 06:17:50;;;;;;;26.05;14.15;;;;;;;11.74;100.00;101573.00;5040446;28;20060;-85
2022/01/01 06:20:20;;;;;;;28.98;13.40;;;;;;;11.78;100.00;101571.28;5059144;28;20102;-84
2022/01/01 06:22:47;;;;;;;27.05;14.95;;;;;;;11.80;100.00;101580.03;5054313;28;20105;-86
2022/01/01 06:25:14;;;;;;;22.80;13.52;;;;;;;11.82;99.84;101586.13;5043838;28;20255;-88
2022/01/01 06:27:41;;;;;;;29.67;12.88;;;;;;;11.88;99.58;101585.28;5036788;28;20045;-87
2022/01/01 06:30:08;;;;;;;25.60;13.13;;;;;;;11.87;99.75;101586.16;5040560;28;20046;-87
2022/01/01 06:32:38;;;;;;;25.48;12.63;;;;;;;11.86;99.43;101587.03;5017099;28;20063;-85
2022/01/01 06:35:06;;;;;;;24.70;13.68;;;;;;;11.82;99.69;101583.50;5042947;28;20160;-86
2022/01/01 06:37:33;;;;;;;20.17;13.88;;;;;;;11.82;99.75;101587.91;5036513;28;20328;-86
2022/01/01 06:40:09;;;;;;;25.63;14.50;;;;;;;11.80;99.53;101587.91;5025475;28;20389;-82
2022/01/01 06:42:38;;;;;;;33.45;15.00;;;;;;;11.78;99.72;101592.25;5026392;28;20413;-87
2022/01/01 06:45:06;;;;;;;30.38;15.90;;;;;;;11.75;99.79;101590.50;5021884;28;20055;-85
2022/01/01 06:47:33;;;;;;;36.63;15.25;;;;;;;11.75;100.00;101589.66;5032656;28;20056;-83
2022/01/01 06:50:00;;;;;;;29.17;16.08;;;;;;;11.72;100.00;101585.28;5040960;28;20112;-84
2022/01/01 06:52:26;;;;;;;34.50;18.23;;;;;;;11.69;100.00;101595.78;5026793;28;20041;-88
2022/01/01 06:54:55;;;;;;;27.13;17.85;;;;;;;11.70;100.00;101600.13;5040273;28;20134;-90
2022/01/01 06:57:22;;;;;;;32.15;17.70;;;;;;;11.69;100.00;101606.25;5030406;28;20049;-90
2022/01/01 06:59:49;;;;;;;33.90;17.20;;;;;;;11.67;100.00;101609.75;5025161;28;20080;-86
2022/01/01 07:02:16;;;;;;;31.45;17.58;;;;;;;11.65;100.00;101607.09;5046754;28;20044;-83
2022/01/01 07:04:46;;;;;;;34.75;18.45;;;;;;;11.70;100.00;101610.59;5042791;28;20044;-85
2022/01/01 07:07:14;;;;;;;30.02;17.63;;;;;;;11.69;100.00;101619.38;5045471;28;20230;-90
2022/01/01 07:09:41;;;;;;;35.08;16.65;;;;;;;11.68;100.00;101620.25;5033347;28;20080;-90
2022/01/01 07:12:09;;;;;;;23.95;15.88;;;;;;;11.65;100.00;101619.34;5039842;28;20111;-85
2022/01/01 07:14:39;;;;;;;32.13;16.55;;;;;;;11.68;100.00;101628.13;5030755;28;20041;-84
2022/01/01 07:17:05;;;;;;;35.38;17.02;;;;;;;11.65;100.00;101621.97;5020130;28;20049;-87
2022/01/01 07:19:32;;;;;;;34.00;17.98;;;;;;;11.68;100.00;101632.47;5026697;28;20345;-90
2022/01/01 07:22:02;;;;;;;33.53;17.38;;;;;;;11.69;100.00;101628.97;5034886;28;20090;-87
2022/01/01 07:24:29;;;;;;;32.20;16.98;;;;;;;11.69;100.00;101626.34;5024463;28;20076;-87
2022/01/01 07:26:56;;;;;;;37.63;17.35;;;;;;;11.70;100.00;101630.72;5025533;28;20053;-87
2022/01/01 07:29:24;;;;;;;30.52;17.27;;;;;;;11.70;100.00;101625.47;5043121;28;20049;-84
2022/01/01 07:31:53;;;;;;;31.42;15.98;;;;;;;11.70;99.97;101628.97;5042527;28;20120;-83
2022/01/01 07:34:23;;;;;;;32.45;16.33;;;;;;;11.71;99.99;101635.09;5038564;28;20072;-83
2022/01/01 07:36:51;;;;;;;30.30;16.52;;;;;;;11.70;99.93;101633.34;5032373;28;20137;-85
2022/01/01 07:39:18;;;;;;;31.42;19.17;;;;;;;11.71;99.85;101641.22;5042984;28;20073;-84
2022/01/01 07:41:45;;;;;;;28.55;15.52;;;;;;;11.70;99.75;101649.94;5029140;28;20053;-84
2022/01/01 07:44:13;;;;;;;34.78;16.60;;;;;;;11.69;99.67;101647.34;5012118;28;20040;-82
2022/01/01 07:46:40;;;;;;;32.60;17.55;;;;;;;11.72;99.64;101649.94;5013151;28;20056;-88
2022/01/01 07:49:07;;;;;;;27.38;14.93;;;;;;;11.70;99.45;101657.81;5027989;28;20047;-82
2022/01/01 07:51:34;;;;;;;28.23;15.38;;;;;;;11.73;99.29;101649.09;5011263;28;20033;-84
2022/01/01 07:54:01;;;;;;;31.60;15.20;;;;;;;11.77;98.94;101661.34;5034050;28;20048;-87
2022/01/01 07:56:31;;;;;;;26.45;14.30;;;;;;;11.78;98.79;101655.22;5019512;28;20100;-86
2022/01/01 07:59:00;;;;;;;23.90;15.32;;;;;;;11.78;98.86;101654.34;5042510;28;20052;-90
2022/01/01 08:01:36;;;;;;;28.10;13.80;;;;;;;11.81;98.29;101659.59;5050764;28;20215;-85
2022/01/01 08:04:13;;;;;;;28.77;13.73;;;;;;;11.81;98.67;101664.84;5020027;28;20407;-88
2022/01/01 08:06:43;;;;;;;25.15;13.88;;;;;;;11.82;98.56;101661.34;5014702;28;20036;-88
2022/01/01 08:09:16;;;;;;;21.48;12.60;;;;;;;11.83;98.51;101670.97;5036316;28;20064;-89
2022/01/01 08:11:50;;;;;;;26.08;13.48;;;;;;;11.84;98.10;101670.13;5019228;28;20060;-86
2022/01/01 08:14:20;;;;;;;30.25;14.63;;;;;;;11.85;97.93;101667.50;5056403;28;20057;-86
2022/01/01 08:17:03;;;;;;;25.08;12.48;;;;;;;11.84;98.34;101657.00;5002943;28;20079;-90
2022/01/01 08:19:32;;;;;;;27.80;13.18;;;;;;;11.84;98.25;101665.72;5016571;28;20104;-84
2022/01/01 08:22:00;;;;;;;28.67;13.50;;;;;;;11.85;97.96;101679.72;5029894;28;20072;-86
2022/01/01 08:24:31;;;;;;;29.65;14.02;;;;;;;11.87;97.84;101676.22;5037126;28;20823;-89
2022/01/01 08:27:07;;;;;;;21.00;11.27;;;;;;;11.89;97.57;101677.13;5038572;28;20116;-87
2022/01/01 08:29:52;;;;;;;25.67;12.18;;;;;;;11.92;97.65;101682.34;5053351;28;20056;-84
2022/01/01 08:32:23;;;;;;;24.85;11.88;;;;;;;11.95;97.12;101680.63;5030948;28;20079;-86
2022/01/01 08:34:52;;;;;;;27.13;12.07;;;;;;;12.00;97.13;101689.41;5041564;28;20732;-87
2022/01/01 08:37:24;;;;;;;23.83;12.07;;;;;;;12.05;96.23;101688.53;5058977;28;20032;-88
2022/01/01 08:39:51;;;;;;;22.48;11.43;;;;;;;12.02;96.51;101687.66;5036159;28;20049;-89
2022/01/01 08:42:25;;;;;;;19.80;12.27;;;;;;;12.04;95.96;101689.41;5035743;28;20045;-85
2022/01/01 08:44:52;;;;;;;22.27;12.00;;;;;;;12.07;95.73;101699.03;5035602;28;20045;-85
2022/01/01 08:50:39;;;;;;;22.58;11.07;;;;;;;12.05;95.69;101695.56;5060665;28;20044;-86
2022/01/01 08:53:18;;;;;;;21.60;12.13;;;;;;;12.06;95.58;101692.06;5061310;28;20047;-85
2022/01/01 08:55:52;;;;;;;21.23;10.18;;;;;;;12.07;95.81;101696.41;5060589;28;20045;-87
2022/01/01 08:58:30;;;;;;;17.50;9.85;;;;;;;12.09;95.19;101699.94;5063646;28;21012;-87
2022/01/01 09:00:57;;;;;;;26.40;10.95;;;;;;;12.13;94.48;101693.81;5057103;28;20036;-87
2022/01/01 09:03:24;;;;;;;20.17;10.32;;;;;;;12.17;94.97;101703.44;5037368;28;20787;-90
2022/01/01 09:05:51;;;;;;;25.13;10.25;;;;;;;12.20;94.11;101698.19;5042874;28;20048;-87
2022/01/01 09:08:18;;;;;;;21.85;10.00;;;;;;;12.22;94.17;101699.06;5038184;28;20052;-87
2022/01/01 09:10:51;;;;;;;21.85;9.65;;;;;;;12.27;93.75;101703.44;5055410;28;20040;-90
2022/01/01 09:13:19;;;;;;;19.25;10.40;;;;;;;12.26;93.76;101704.34;5041946;28;20079;-89
2022/01/01 09:15:49;;;;;;;22.80;8.73;;;;;;;12.32;93.02;101712.19;5056333;28;20082;-86
2022/01/01 09:18:17;;;;;;;19.90;8.95;;;;;;;12.35;93.02;101717.47;5037556;28;20049;-86
2022/01/01 09:20:48;;;;;;;18.00;9.68;;;;;;;12.43;92.45;101722.72;5034320;28;20064;-84
2022/01/01 09:23:19;;;;;;;14.27;8.25;;;;;;;12.44;91.96;101719.19;5021101;28;20108;-88
2022/01/01 09:25:50;;;;;;;21.10;8.40;;;;;;;12.44;92.00;101714.84;5039601;28;20055;-86
2022/01/01 09:28:18;;;;;;;20.70;8.43;;;;;;;12.47;92.02;101713.97;5053612;28;20051;-87
2022/01/01 09:30:51;;;;;;;16.10;8.68;;;;;;;12.48;91.98;101716.59;5049945;28;20040;-88
2022/01/01 09:33:29;;;;;;;20.83;9.32;;;;;;;12.51;91.92;101715.72;5053526;28;20103;-85
2022/01/01 09:36:04;;;;;;;17.58;7.90;;;;;;;12.54;91.87;101713.97;5043932;28;20029;-87
2022/01/01 09:38:37;;;;;;;16.02;8.25;;;;;;;12.57;91.83;101707.84;5029239;28;20087;-86
2022/01/01 09:41:09;;;;;;;17.77;9.23;;;;;;;12.60;91.25;101720.09;5035999;28;20063;-88
2022/01/01 09:43:39;;;;;;;16.42;8.95;;;;;;;12.60;91.38;101705.19;5035815;28;20075;-84
2022/01/01 09:46:07;;;;;;;16.45;9.70;;;;;;;12.63;91.67;101718.31;5014608;28;20053;-82
2022/01/01 09:48:37;;;;;;;18.75;9.30;;;;;;;12.63;91.47;101718.31;5042606;28;20246;-86
2022/01/01 09:51:06;;;;;;;20.70;9.63;;;;;;;12.61;91.65;101717.47;5030911;28;20061;-85
2022/01/01 09:53:34;;;;;;;16.33;9.00;;;;;;;12.62;92.15;101723.59;5044039;28;20045;-84
2022/01/01 09:56:07;;;;;;;20.15;10.70;;;;;;;12.64;92.13;101720.06;5053405;28;20049;-86
2022/01/01 09:58:38;;;;;;;13.52;8.77;;;;;;;12.65;92.23;101721.84;5045864;28;20116;-88
2022/01/01 10:01:12;;;;;;;18.10;8.88;;;;;;;12.67;92.15;101730.59;5044478;28;20084;-84
2022/01/01 10:03:41;;;;;;;26.02;10.00;;;;;;;12.70;91.68;101732.34;5029319;28;20394;-86
2022/01/01 10:06:26;;;;;;;19.30;9.40;;;;;;;12.71;91.64;101736.72;5028771;28;20045;-90
2022/01/01 10:09:03;;;;;;;16.77;9.80;;;;;;;12.74;91.92;101742.84;5044678;28;20056;-90
2022/01/01 10:11:32;;;;;;;22.67;9.60;;;;;;;12.80;90.97;101730.59;5040706;28;20049;-84
2022/01/01 10:13:59;;;;;;;18.70;9.38;;;;;;;12.78;91.24;101735.84;5033543;28;21218;-83
2022/01/01 10:16:26;;;;;;;15.65;9.32;;;;;;;12.78;91.47;101735.84;5036142;28;20048;-88
2022/01/01 10:18:54;;;;;;;22.42;9.57;;;;;;;12.81;91.20;101742.84;5049803;28;20076;-85
2022/01/01 10:21:27;;;;;;;13.00;8.70;;;;;;;12.86;90.80;101746.34;5021056;28;20041;-86
2022/01/01 10:23:58;;;;;;;18.70;9.23;;;;;;;12.85;90.94;101739.34;5034579;28;20436;-88
2022/01/01 10:29:26;;;;;;;;;;;;;;;12.89;90.65;101734.09;5052256;28;20029;-88
2022/01/01 10:32:15;;;;;;;14.80;8.82;;;;;;;12.98;90.31;101727.06;5020997;28;19936;-88
2022/01/01 10:34:47;;;;;;;15.23;8.52;;;;;;;13.03;90.13;101735.81;5018846;28;20087;-86
2022/01/01 10:37:15;;;;;;;14.32;7.13;;;;;;;13.07;89.53;101743.72;5035236;28;20072;-89
2022/01/01 10:39:54;;;;;;;13.98;7.63;;;;;;;13.07;89.98;101730.56;4996532;28;20489;-89
2022/01/01 10:42:20;;;;;;;16.60;7.47;;;;;;;13.08;89.29;101723.53;5005897;28;20041;-88
2022/01/01 10:44:51;;;;;;;11.80;7.13;;;;;;;13.07;89.53;101727.94;5034784;28;20080;-84
2022/01/01 10:47:26;;;;;;;15.18;6.65;;;;;;;13.08;89.27;101716.50;5039238;28;20604;-83
2022/01/01 10:50:13;;;;;;;13.05;6.80;;;;;;;13.15;88.47;101721.75;5039133;28;20559;-84
2022/01/01 10:52:45;;;;;;;17.33;6.15;;;;;;;13.21;87.35;101721.75;5021127;28;20055;-87
2022/01/01 10:55:12;;;;;;;12.60;5.90;;;;;;;13.23;87.58;101712.09;5001760;28;20060;-85
2022/01/01 10:57:55;;;;;;;11.32;6.75;;;;;;;13.29;87.24;101716.47;4995804;28;20056;-85
2022/01/01 11:00:24;;;;;;;18.00;6.90;;;;;;;13.32;87.55;101721.72;5018677;28;20119;-86
2022/01/01 11:02:54;;;;;;;13.45;5.63;;;;;;;13.32;86.57;101708.56;5014462;28;20388;-86
2022/01/01 11:05:39;;;;;;;9.32;5.90;;;;;;;13.37;86.39;101712.09;5019039;28;20037;-86
2022/01/01 11:08:09;;;;;;;10.23;6.07;;;;;;;13.37;86.31;101710.31;5013964;28;20060;-87
2022/01/01 11:10:39;;;;;;;9.48;5.20;;;;;;;13.37;86.77;101712.94;5019377;28;20168;-87
2022/01/01 11:13:08;;;;;;;12.57;6.07;;;;;;;13.42;86.07;101714.72;5000668;28;20142;-86
2022/01/01 11:15:34;;;;;;;9.18;5.28;;;;;;;13.48;86.00;101706.78;5000056;28;20446;-83
2022/01/01 11:18:02;;;;;;;12.82;5.50;;;;;;;13.53;86.06;101702.38;5016869;28;20063;-86
2022/01/01 11:20:34;;;;;;;8.85;4.55;;;;;;;13.61;84.95;101697.06;5032039;28;20044;-86
2022/01/01 11:23:11;;;;;;;11.77;6.15;;;;;;;13.62;85.47;101691.81;5013913;28;20048;-86
2022/01/01 11:25:40;;;;;;;9.43;5.28;;;;;;;13.67;85.29;101687.41;5017128;28;20159;-84